createdAt,value
2022-08-03T00:01:06.433Z,21.21
2022-08-03T00:03:36.892Z,21.19
2022-08-03T00:06:07.503Z,21.10
2022-08-03T00:08:40.255Z,20.88
2022-08-03T00:11:10.583Z,20.83
2022-08-03T00:13:40.761Z,20.73
2022-08-03T00:16:14.294Z,20.49
2022-08-03T00:18:44.496Z,20.47
2022-08-03T00:21:14.968Z,20.36
2022-08-03T00:23:51.419Z,20.21
2022-08-03T00:26:23.334Z,20.23
2022-08-03T00:28:53.850Z,20.28
2022-08-03T00:31:52.669Z,20.14
2022-08-03T00:34:16.661Z,20.03
2022-08-03T00:37:03.924Z,19.98
2022-08-03T00:39:34.096Z,19.86
2022-08-03T00:42:06.038Z,19.75
2022-08-03T00:44:43.206Z,19.66
2022-08-03T00:47:15.958Z,19.59
2022-08-03T00:49:46.399Z,19.45
2022-08-03T00:52:18.530Z,19.50
2022-08-03T00:54:49.257Z,19.41
2022-08-03T00:57:19.400Z,19.36
2022-08-03T00:59:49.571Z,19.47
2022-08-03T01:02:22.399Z,19.45
2022-08-03T01:04:52.530Z,19.34
2022-08-03T01:07:30.607Z,19.12
2022-08-03T01:10:06.030Z,18.92
2022-08-03T01:12:41.785Z,19.03
2022-08-03T01:15:19.285Z,18.85
2022-08-03T01:17:59.179Z,18.92
2022-08-03T01:20:35.036Z,18.98
2022-08-03T01:23:19.343Z,18.85
2022-08-03T01:26:06.503Z,18.69
2022-08-03T01:28:59.522Z,18.69
2022-08-03T01:33:00.029Z,18.75
2022-08-03T01:34:34.440Z,18.34
2022-08-03T01:37:10.518Z,18.22
2022-08-03T01:39:42.521Z,18.17
2022-08-03T01:42:14.974Z,18.22
2022-08-03T01:44:48.987Z,18.26
2022-08-03T01:47:24.084Z,18.17
2022-08-03T01:49:55.842Z,18.18
2022-08-03T01:52:27.234Z,18.28
2022-08-03T01:54:58.609Z,18.25
2022-08-03T01:57:30.892Z,17.98
2022-08-03T02:00:04.415Z,18.02
2022-08-03T02:02:47.140Z,18.07
2022-08-03T02:05:19.372Z,17.97
2022-08-03T02:07:50.994Z,18.00
2022-08-03T02:10:35.430Z,17.85
2022-08-03T02:13:10.336Z,17.83
2022-08-03T02:15:41.917Z,17.96
2022-08-03T02:18:16.316Z,18.02
2022-08-03T02:20:47.472Z,18.01
2022-08-03T02:23:18.841Z,18.10
2022-08-03T02:25:53.968Z,18.17
2022-08-03T02:28:27.879Z,18.13
2022-08-03T02:31:00.087Z,18.08
2022-08-03T02:33:37.367Z,18.10
2022-08-03T02:36:09.243Z,18.06
2022-08-03T02:38:42.037Z,18.05
2022-08-03T02:41:18.167Z,17.75
2022-08-03T02:44:06.424Z,17.85
2022-08-03T02:46:42.638Z,17.71
2022-08-03T02:49:41.462Z,17.76
2022-08-03T02:52:13.385Z,17.54
2022-08-03T02:54:47.263Z,17.66
2022-08-03T02:57:19.574Z,17.71
2022-08-03T02:59:50.469Z,17.74
2022-08-03T03:02:22.038Z,17.76
2022-08-03T03:05:55.074Z,17.77
2022-08-03T03:07:52.928Z,17.58
2022-08-03T03:10:25.594Z,17.65
2022-08-03T03:12:58.754Z,17.68
2022-08-03T03:15:31.629Z,17.43
2022-08-03T03:18:04.130Z,17.37
2022-08-03T03:20:37.859Z,17.39
2022-08-03T03:23:08.825Z,17.28
2022-08-03T03:25:39.436Z,17.38
2022-08-03T03:28:10.551Z,17.33
2022-08-03T03:30:41.724Z,17.39
2022-08-03T03:33:12.290Z,17.22
2022-08-03T03:35:47.051Z,17.19
2022-08-03T03:38:17.301Z,17.06
2022-08-03T03:40:47.718Z,16.83
2022-08-03T03:43:18.745Z,17.08
2022-08-03T03:45:51.907Z,17.22
2022-08-03T03:48:22.464Z,17.38
2022-08-03T03:50:57.403Z,17.46
2022-08-03T03:53:28.223Z,17.38
2022-08-03T03:56:01.824Z,17.37
2022-08-03T03:58:34.393Z,17.41
2022-08-03T04:01:05.451Z,17.48
2022-08-03T04:03:35.737Z,17.51
2022-08-03T04:06:20.912Z,17.49
2022-08-03T04:09:03.496Z,17.46
2022-08-03T04:11:39.760Z,17.43
2022-08-03T04:14:13.834Z,17.44
2022-08-03T04:16:48.039Z,17.46
2022-08-03T04:19:23.529Z,17.54
2022-08-03T04:22:02.252Z,17.62
2022-08-03T04:24:37.788Z,17.62
2022-08-03T04:27:12.263Z,17.69
2022-08-03T04:29:48.400Z,17.69
2022-08-03T04:32:20.464Z,17.77
2022-08-03T04:34:50.804Z,17.86
2022-08-03T04:37:30.223Z,18.00
2022-08-03T04:40:04.700Z,18.15
2022-08-03T04:42:37.351Z,18.24
2022-08-03T04:45:10.415Z,18.37
2022-08-03T04:47:42.377Z,18.48
2022-08-03T04:50:18.147Z,18.63
2022-08-03T04:53:09.943Z,18.84
2022-08-03T04:55:40.032Z,19.04
2022-08-03T04:58:10.589Z,19.17
2022-08-03T05:00:41.385Z,19.32
2022-08-03T05:03:20.246Z,19.53
2022-08-03T05:06:01.960Z,19.66
2022-08-03T05:08:46.900Z,19.81
2022-08-03T05:11:18.207Z,20.03
2022-08-03T05:13:48.919Z,20.23
2022-08-03T05:16:19.303Z,20.42
2022-08-03T05:18:49.594Z,20.61
2022-08-03T05:21:20.217Z,20.79
2022-08-03T05:23:53.636Z,21.02
2022-08-03T05:26:23.994Z,21.11
2022-08-03T05:28:54.837Z,21.18
2022-08-03T05:31:25.766Z,21.57
2022-08-03T05:33:57.429Z,21.62
2022-08-03T05:36:28.244Z,21.92
2022-08-03T05:39:02.915Z,22.00
2022-08-03T05:41:36.607Z,22.11
2022-08-03T05:44:08.655Z,22.46
2022-08-03T05:46:39.558Z,22.76
2022-08-03T05:49:10.293Z,22.72
2022-08-03T05:51:40.943Z,22.85
2022-08-03T05:54:14.335Z,23.08
2022-08-03T05:56:44.669Z,23.37
2022-08-03T05:59:36.950Z,23.54
2022-08-03T06:02:06.528Z,23.51
2022-08-03T06:04:37.170Z,23.79
2022-08-03T06:07:07.591Z,23.76
2022-08-03T06:10:36.528Z,24.08
2022-08-03T06:12:32.385Z,24.39
2022-08-03T06:15:02.871Z,24.67
2022-08-03T06:17:37.739Z,24.73
2022-08-03T06:20:09.701Z,24.41
2022-08-03T06:22:44.506Z,24.72
2022-08-03T06:25:26.261Z,24.57
2022-08-03T06:27:57.054Z,24.96
2022-08-03T06:30:28.863Z,25.00
2022-08-03T06:33:02.038Z,25.18
2022-08-03T06:35:32.581Z,25.56
2022-08-03T06:38:05.938Z,25.43
2022-08-03T06:40:40.403Z,25.38
2022-08-03T06:43:12.734Z,25.18
2022-08-03T06:45:47.625Z,25.28
2022-08-03T06:48:18.354Z,25.72
2022-08-03T06:50:49.044Z,25.82
2022-08-03T06:53:21.460Z,25.38
2022-08-03T06:55:55.494Z,25.73
2022-08-03T06:58:26.041Z,26.12
2022-08-03T07:00:57.210Z,25.97
2022-08-03T07:03:28.083Z,26.14
2022-08-03T07:05:58.737Z,25.92
2022-08-03T07:08:33.209Z,26.06
2022-08-03T07:11:08.266Z,26.45
2022-08-03T07:13:38.720Z,26.35
2022-08-03T07:16:12.189Z,26.53
2022-08-03T07:18:43.256Z,26.25
2022-08-03T07:21:14.048Z,26.80
2022-08-03T07:23:44.503Z,26.97
2022-08-03T07:26:17.939Z,27.32
2022-08-03T07:28:48.593Z,27.27
2022-08-03T07:31:19.079Z,27.44
2022-08-03T07:33:49.924Z,27.48
2022-08-03T07:36:20.343Z,27.77
2022-08-03T07:38:51.007Z,27.98
2022-08-03T07:41:24.068Z,27.78
2022-08-03T07:43:54.607Z,28.31
2022-08-03T07:46:25.054Z,28.38
2022-08-03T07:48:57.451Z,27.92
2022-08-03T07:51:28.158Z,28.22
2022-08-03T07:53:58.707Z,28.65
2022-08-03T07:56:32.147Z,28.92
2022-08-03T07:59:03.202Z,28.91
2022-08-03T08:01:36.814Z,28.24
2022-08-03T08:04:07.718Z,28.45
2022-08-03T08:06:39.214Z,28.75
2022-08-03T08:09:10.173Z,29.07
2022-08-03T08:11:43.302Z,28.81
2022-08-03T08:14:13.492Z,29.34
2022-08-03T08:16:43.875Z,28.98
2022-08-03T08:19:14.830Z,29.21
2022-08-03T08:21:53.005Z,29.47
2022-08-03T08:24:34.148Z,29.28
2022-08-03T08:27:09.070Z,29.21
2022-08-03T08:29:53.116Z,29.25
2022-08-03T08:32:26.862Z,29.01
2022-08-03T08:34:58.018Z,29.52
2022-08-03T08:37:28.441Z,29.67
2022-08-03T08:39:59.640Z,29.15
2022-08-03T08:42:34.275Z,29.46
2022-08-03T08:45:06.332Z,29.17
2022-08-03T08:47:51.029Z,29.74
2022-08-03T08:50:27.929Z,29.26
2022-08-03T08:52:59.692Z,29.72
2022-08-03T08:55:58.256Z,29.59
2022-08-03T08:58:25.655Z,30.03
2022-08-03T09:00:59.008Z,29.67
2022-08-03T09:03:31.079Z,29.30
2022-08-03T09:06:03.943Z,29.42
2022-08-03T09:08:36.102Z,29.63
2022-08-03T09:11:07.737Z,29.59
2022-08-03T09:13:41.113Z,30.32
2022-08-03T09:16:16.075Z,30.35
2022-08-03T09:18:48.054Z,30.88
2022-08-03T09:21:33.847Z,31.24
2022-08-03T09:24:16.563Z,30.93
2022-08-03T09:26:59.190Z,31.11
2022-08-03T09:29:38.064Z,30.56
2022-08-03T09:32:09.195Z,30.25
2022-08-03T09:34:40.557Z,30.50
2022-08-03T09:37:17.377Z,30.37
2022-08-03T09:39:48.756Z,30.69
2022-08-03T09:42:23.828Z,30.62
2022-08-03T09:44:58.347Z,30.65
2022-08-03T09:47:33.515Z,30.26
2022-08-03T09:50:07.193Z,31.14
2022-08-03T09:52:49.404Z,30.57
2022-08-03T09:56:35.040Z,31.06
2022-08-03T09:58:16.152Z,31.01
2022-08-03T10:01:24.483Z,31.11
2022-08-03T10:04:03.857Z,31.48
2022-08-03T10:06:35.546Z,31.05
2022-08-03T10:09:10.637Z,31.31
2022-08-03T10:11:42.640Z,31.52
2022-08-03T10:14:19.582Z,31.45
2022-08-03T10:16:53.995Z,31.11
2022-08-03T10:19:26.152Z,31.77
2022-08-03T10:22:00.113Z,31.44
2022-08-03T10:24:33.947Z,30.91
2022-08-03T10:27:07.689Z,31.29
2022-08-03T10:29:42.098Z,31.44
2022-08-03T10:32:30.081Z,32.63
2022-08-03T10:35:18.997Z,32.35
2022-08-03T10:37:57.073Z,31.34
2022-08-03T10:40:48.087Z,31.97
2022-08-03T10:43:24.910Z,32.86
2022-08-03T10:45:56.129Z,32.96
2022-08-03T10:48:30.587Z,33.34
2022-08-03T10:51:01.326Z,33.15
2022-08-03T10:53:40.552Z,32.54
2022-08-03T10:56:54.829Z,33.14
2022-08-03T11:00:05.068Z,31.55
2022-08-03T11:03:06.775Z,32.19
2022-08-03T11:05:43.363Z,31.91
2022-08-03T11:08:35.104Z,32.81
2022-08-03T11:11:28.742Z,32.85
2022-08-03T11:14:05.067Z,33.03
2022-08-03T11:16:39.351Z,33.68
2022-08-03T11:19:11.937Z,33.61
2022-08-03T11:22:12.386Z,33.87
2022-08-03T11:25:53.447Z,32.62
2022-08-03T11:28:30.706Z,32.56
2022-08-03T11:31:52.131Z,32.61
2022-08-03T11:34:22.651Z,32.05
2022-08-03T11:37:29.936Z,32.07
2022-08-03T11:40:02.831Z,32.40
2022-08-03T11:42:50.814Z,31.90
2022-08-03T11:45:26.715Z,32.42
2022-08-03T11:47:59.094Z,32.28
2022-08-03T11:50:29.928Z,31.96
2022-08-03T11:53:00.872Z,32.32
2022-08-03T11:55:34.349Z,32.21
2022-08-03T11:59:01.043Z,32.63
2022-08-03T12:01:07.372Z,32.66
2022-08-03T12:03:39.609Z,32.74
2022-08-03T12:06:14.416Z,32.74
2022-08-03T12:08:46.911Z,32.95
2022-08-03T12:11:19.306Z,33.16
2022-08-03T12:14:45.383Z,32.78
2022-08-03T12:16:44.237Z,32.00
2022-08-03T12:19:14.369Z,32.08
2022-08-03T12:21:56.895Z,32.95
2022-08-03T12:24:29.696Z,33.28
2022-08-03T12:27:00.310Z,32.95
2022-08-03T12:29:33.151Z,33.12
2022-08-03T12:32:03.376Z,32.96
2022-08-03T12:34:48.934Z,33.15
2022-08-03T12:37:23.576Z,33.38
2022-08-03T12:40:01.377Z,33.46
2022-08-03T12:42:35.040Z,33.35
2022-08-03T12:45:27.055Z,33.21
2022-08-03T12:47:59.352Z,33.13
2022-08-03T12:50:31.957Z,33.22
2022-08-03T12:53:02.713Z,33.23
2022-08-03T12:55:56.575Z,33.25
2022-08-03T12:58:35.719Z,33.45
2022-08-03T13:01:13.708Z,33.76
2022-08-03T13:03:49.754Z,34.08
2022-08-03T13:06:23.090Z,33.11
2022-08-03T13:08:54.044Z,32.92
2022-08-03T13:11:53.604Z,33.18
2022-08-03T13:14:20.109Z,33.28
2022-08-03T13:16:53.654Z,33.18
2022-08-03T13:19:23.845Z,33.50
2022-08-03T13:22:03.437Z,32.95
2022-08-03T13:24:35.622Z,33.16
2022-08-03T13:28:02.367Z,32.96
2022-08-03T13:29:58.219Z,32.96
2022-08-03T13:32:31.274Z,33.27
2022-08-03T13:35:02.672Z,33.09
2022-08-03T13:37:34.114Z,32.61
2022-08-03T13:40:05.868Z,32.28
2022-08-03T13:42:38.928Z,31.55
2022-08-03T13:45:10.838Z,31.79
2022-08-03T13:47:43.989Z,31.25
2022-08-03T13:50:13.759Z,31.44
2022-08-03T13:52:46.386Z,31.27
2022-08-03T13:55:16.653Z,31.47
2022-08-03T13:58:05.866Z,32.04
2022-08-03T14:00:40.557Z,32.50
2022-08-03T14:03:14.726Z,32.31
2022-08-03T14:05:47.640Z,32.35
2022-08-03T14:08:18.404Z,31.71
2022-08-03T14:10:48.978Z,31.41
2022-08-03T14:13:19.147Z,31.46
2022-08-03T14:15:51.441Z,31.34
2022-08-03T14:18:28.734Z,30.90
2022-08-03T14:21:06.765Z,30.84
2022-08-03T14:23:38.621Z,30.84
2022-08-03T14:26:09.333Z,31.31
2022-08-03T14:28:39.720Z,31.51
2022-08-03T14:32:09.060Z,31.69
2022-08-03T14:34:03.610Z,32.02
2022-08-03T14:36:33.936Z,31.78
2022-08-03T14:39:05.304Z,32.22
2022-08-03T14:41:35.509Z,31.93
2022-08-03T14:44:05.656Z,32.26
2022-08-03T14:46:35.840Z,32.43
2022-08-03T14:50:30.829Z,32.14
2022-08-03T14:51:58.876Z,32.07
2022-08-03T14:54:31.088Z,32.04
2022-08-03T14:57:01.876Z,32.20
2022-08-03T14:59:55.809Z,32.28
2022-08-03T15:02:23.862Z,32.20
2022-08-03T15:04:57.259Z,32.08
2022-08-03T15:07:27.525Z,32.20
2022-08-03T15:09:57.699Z,31.96
2022-08-03T15:12:28.722Z,32.23
2022-08-03T15:14:59.070Z,31.99
2022-08-03T15:17:29.202Z,32.15
2022-08-03T15:20:18.983Z,32.26
2022-08-03T15:22:52.102Z,32.00
2022-08-03T15:26:29.292Z,31.73
2022-08-03T15:28:12.963Z,32.06
2022-08-03T15:30:43.964Z,31.93
2022-08-03T15:33:14.201Z,31.84
2022-08-03T15:35:47.872Z,31.92
2022-08-03T15:38:18.306Z,31.69
2022-08-03T15:40:48.592Z,31.67
2022-08-03T15:43:18.945Z,31.67
2022-08-03T15:45:54.627Z,31.77
2022-08-03T15:48:39.963Z,31.54
2022-08-03T15:51:13.477Z,31.52
2022-08-03T15:53:43.623Z,31.63
2022-08-03T15:56:18.435Z,31.39
2022-08-03T15:59:09.397Z,31.31
2022-08-03T16:01:39.748Z,31.34
2022-08-03T16:04:10.546Z,31.38
2022-08-03T16:06:43.419Z,31.38
2022-08-03T16:09:23.899Z,31.38
2022-08-03T16:12:03.306Z,31.25
2022-08-03T16:14:41.590Z,31.18
2022-08-03T16:17:21.930Z,31.27
2022-08-03T16:19:55.119Z,31.02
2022-08-03T16:22:28.655Z,31.06
2022-08-03T16:25:00.201Z,31.05
2022-08-03T16:28:00.266Z,31.01
2022-08-03T16:30:20.794Z,30.76
2022-08-03T16:32:50.995Z,30.84
2022-08-03T16:35:21.433Z,30.85
2022-08-03T16:37:56.625Z,30.64
2022-08-03T16:40:28.224Z,30.65
2022-08-03T16:42:58.772Z,30.56
2022-08-03T16:45:32.290Z,30.61
2022-08-03T16:48:05.896Z,30.53
2022-08-03T16:50:37.208Z,30.44
2022-08-03T16:53:15.681Z,30.51
2022-08-03T16:55:53.978Z,30.43
2022-08-03T16:58:34.936Z,30.41
2022-08-03T17:01:24.340Z,30.28
2022-08-03T17:04:02.311Z,30.24
2022-08-03T17:06:35.624Z,30.11
2022-08-03T17:09:11.132Z,30.07
2022-08-03T17:11:44.141Z,29.98
2022-08-03T17:14:21.837Z,29.88
2022-08-03T17:16:54.680Z,29.88
2022-08-03T17:19:26.661Z,29.76
2022-08-03T17:22:04.137Z,29.69
2022-08-03T17:24:41.463Z,29.58
2022-08-03T17:28:42.363Z,29.52
2022-08-03T17:30:10.506Z,29.47
2022-08-03T17:32:56.930Z,29.36
2022-08-03T17:35:36.674Z,29.25
2022-08-03T17:38:14.122Z,29.13
2022-08-03T17:40:51.930Z,28.98
2022-08-03T17:43:44.365Z,28.89
2022-08-03T17:46:13.165Z,28.75
2022-08-03T17:48:43.754Z,28.64
2022-08-03T17:51:21.073Z,28.43
2022-08-03T17:53:58.728Z,28.18
2022-08-03T17:56:46.005Z,28.15
2022-08-03T17:59:52.151Z,27.94
2022-08-03T18:02:37.495Z,27.77
2022-08-03T18:05:16.473Z,27.72
2022-08-03T18:08:01.579Z,27.51
2022-08-03T18:10:49.885Z,27.25
2022-08-03T18:13:30.169Z,27.16
2022-08-03T18:16:04.617Z,27.12
2022-08-03T18:18:39.060Z,26.99
2022-08-03T18:21:16.974Z,26.89
2022-08-03T18:23:52.376Z,26.75
2022-08-03T18:26:23.396Z,26.58
2022-08-03T18:28:58.770Z,26.47
2022-08-03T18:32:00.445Z,26.49
2022-08-03T18:34:33.158Z,26.41
2022-08-03T18:37:07.700Z,26.24
2022-08-03T18:39:50.095Z,26.20
2022-08-03T18:42:26.489Z,26.01
2022-08-03T18:44:59.763Z,25.92
2022-08-03T18:47:59.767Z,25.92
2022-08-03T18:50:39.057Z,25.90
2022-08-03T18:53:19.751Z,25.85
2022-08-03T18:56:01.594Z,25.73
2022-08-03T18:58:38.751Z,25.71
2022-08-03T19:01:57.706Z,25.54
2022-08-03T19:04:15.260Z,25.40
2022-08-03T19:06:50.452Z,25.29
2022-08-03T19:09:31.998Z,25.17
2022-08-03T19:12:13.926Z,25.03
2022-08-03T19:15:04.627Z,24.93
2022-08-03T19:17:43.443Z,24.87
2022-08-03T19:20:25.138Z,24.90
2022-08-03T19:22:57.505Z,24.94
2022-08-03T19:25:35.062Z,24.92
2022-08-03T19:28:07.723Z,24.91
2022-08-03T19:30:40.726Z,24.89
2022-08-03T19:33:19.887Z,24.79
2022-08-03T19:35:55.532Z,24.62
2022-08-03T19:38:29.849Z,24.42
2022-08-03T19:41:02.079Z,24.31
2022-08-03T19:43:52.453Z,24.21
2022-08-03T19:46:30.137Z,24.16
2022-08-03T19:49:10.566Z,23.97
2022-08-03T19:52:00.723Z,23.95
2022-08-03T19:54:52.932Z,23.94
2022-08-03T19:57:27.489Z,23.96
2022-08-03T20:00:05.171Z,24.07
2022-08-03T20:02:36.623Z,24.04
2022-08-03T20:05:11.935Z,24.03
2022-08-03T20:07:48.632Z,24.05
2022-08-03T20:10:21.218Z,24.00
2022-08-03T20:12:52.956Z,23.89
2022-08-03T20:15:54.995Z,23.96
2022-08-03T20:18:40.713Z,24.03
2022-08-03T20:21:20.532Z,23.83
2022-08-03T20:24:02.920Z,23.71
2022-08-03T20:26:47.722Z,23.84
2022-08-03T20:29:31.464Z,23.85
2022-08-03T20:32:13.659Z,23.87
2022-08-03T20:34:44.078Z,23.83
2022-08-03T20:37:23.007Z,23.73
2022-08-03T20:39:54.637Z,23.73
2022-08-03T20:42:25.698Z,23.58
2022-08-03T20:45:04.583Z,23.59
2022-08-03T20:47:50.231Z,23.44
2022-08-03T20:50:22.690Z,23.26
2022-08-03T20:52:56.693Z,23.18
2022-08-03T20:58:23.855Z,23.06
2022-08-03T21:00:56.396Z,23.10
2022-08-03T21:03:40.760Z,23.03
2022-08-03T21:06:27.453Z,23.05
2022-08-03T21:09:07.940Z,22.97
2022-08-03T21:11:43.491Z,23.02
2022-08-03T21:13:12.437Z,23.18
2022-08-03T21:14:18.719Z,22.92
2022-08-03T21:16:53.562Z,23.01
2022-08-03T21:19:25.493Z,22.96
2022-08-03T21:21:58.783Z,22.88
2022-08-03T21:24:33.355Z,22.89
2022-08-03T21:27:05.718Z,22.64
2022-08-03T21:29:37.206Z,22.49
2022-08-03T21:32:32.847Z,22.45
2022-08-03T21:35:05.342Z,22.37
2022-08-03T21:37:36.952Z,22.59
2022-08-03T21:40:13.158Z,22.72
2022-08-03T21:45:19.820Z,22.69
2022-08-03T21:47:51.386Z,22.67
2022-08-03T21:50:22.257Z,22.57
2022-08-03T21:52:56.961Z,22.53
2022-08-03T21:55:34.965Z,22.54
2022-08-03T21:58:07.996Z,22.42
2022-08-03T22:00:49.436Z,22.35
2022-08-03T22:03:20.598Z,22.39
2022-08-03T22:05:51.547Z,22.53
2022-08-03T22:08:33.313Z,22.44
2022-08-03T22:11:07.384Z,22.37
2022-08-03T22:13:43.337Z,22.22
2022-08-03T22:16:17.178Z,22.10
2022-08-03T22:18:49.754Z,22.14
2022-08-03T22:21:27.945Z,22.06
2022-08-03T22:24:09.343Z,22.03
2022-08-03T22:27:05.034Z,21.91
2022-08-03T22:29:37.798Z,21.96
2022-08-03T22:32:08.727Z,21.88
2022-08-03T22:34:41.157Z,21.86
2022-08-03T22:37:12.838Z,21.88
2022-08-03T22:39:44.129Z,21.88
2022-08-03T22:42:17.635Z,21.76
2022-08-03T22:44:49.738Z,21.77
2022-08-03T22:47:22.790Z,21.70
2022-08-03T22:50:31.435Z,21.58
2022-08-03T22:52:47.664Z,21.64
2022-08-03T22:55:25.139Z,21.65
2022-08-03T22:57:59.016Z,21.55
2022-08-03T23:00:42.889Z,21.51
2022-08-03T23:03:19.069Z,21.34
2022-08-03T23:06:00.239Z,21.21
2022-08-03T23:08:37.308Z,21.22
2022-08-03T23:11:11.579Z,21.29
2022-08-03T23:13:45.358Z,21.09
2022-08-03T23:16:28.688Z,21.03
2022-08-03T23:19:13.130Z,21.07
2022-08-03T23:21:53.243Z,20.98
2022-08-03T23:24:31.456Z,20.99
2022-08-03T23:27:05.907Z,20.77
2022-08-03T23:29:41.842Z,20.91
2022-08-03T23:32:14.273Z,20.86
2022-08-03T23:34:58.598Z,20.85
2022-08-03T23:37:30.112Z,20.97
2022-08-03T23:40:01.978Z,20.80
2022-08-03T23:42:32.715Z,20.80
2022-08-03T23:45:09.002Z,20.77
2022-08-03T23:47:47.464Z,20.79
2022-08-03T23:50:18.550Z,20.72
2022-08-03T23:53:00.374Z,20.55
2022-08-03T23:55:43.967Z,20.50
2022-08-03T23:58:25.978Z,20.40
